Terminal Aerodrome Forecast
Issued by NWS

Home | Current Version | Previous Version | Text Only | Print | Product List | Glossary On
Versions: 1 2 3 4 5 6 7 8 9 10 11 12 13 14 15 16
000
FTUS46 KMTR 252300
TAFOAK
TAF
KOAK 252340Z 2600/2706 27014KT P6SM BKN017
     FM260200 27012KT P6SM OVC015
     FM260600 27008KT P6SM OVC010
     FM261700 25008KT P6SM OVC012
     FM262100 28013KT P6SM FEW012 SCT018
     FM270300 28010KT P6SM BKN015=

USA.gov is the U.S. government's official web portal to all federal, state and local government web resources and services.